createdAt,value
2019-02-06T00:00:42.335Z,99.90
2019-02-06T00:03:10.324Z,99.90
2019-02-06T00:05:38.691Z,99.90
2019-02-06T00:08:06.461Z,99.90
2019-02-06T00:10:33.753Z,99.90
2019-02-06T00:13:01.133Z,99.90
2019-02-06T00:15:28.608Z,99.90
2019-02-06T00:17:56.160Z,99.90
2019-02-06T00:20:23.537Z,99.90
2019-02-06T00:22:50.824Z,99.90
2019-02-06T00:25:18.204Z,99.90
2019-02-06T00:27:45.429Z,99.90
2019-02-06T00:30:12.829Z,99.90
2019-02-06T00:32:40.108Z,99.90
2019-02-06T00:35:07.436Z,99.90
2019-02-06T00:37:34.590Z,99.90
2019-02-06T00:40:02.649Z,99.90
2019-02-06T00:42:29.986Z,99.90
2019-02-06T00:44:57.307Z,99.90
2019-02-06T00:47:24.760Z,99.90
2019-02-06T00:49:52.088Z,99.90
2019-02-06T00:52:19.334Z,99.90
2019-02-06T00:54:46.490Z,99.90
2019-02-06T00:57:14.063Z,99.90
2019-02-06T00:59:41.332Z,99.90
2019-02-06T01:02:08.598Z,99.90
2019-02-06T01:04:35.862Z,99.90
2019-02-06T01:07:03.264Z,99.90
2019-02-06T01:09:30.487Z,99.90
2019-02-06T01:11:57.674Z,99.90
2019-02-06T01:14:24.954Z,99.90
2019-02-06T01:16:52.306Z,99.90
2019-02-06T01:19:19.479Z,99.90
2019-02-06T01:21:46.847Z,99.90
2019-02-06T01:24:14.111Z,99.90
2019-02-06T01:26:41.410Z,99.90
2019-02-06T01:29:08.761Z,99.90
2019-02-06T01:31:36.418Z,99.90
2019-02-06T01:34:04.104Z,99.90
2019-02-06T01:36:31.315Z,99.90
2019-02-06T01:38:58.495Z,99.90
2019-02-06T01:41:25.759Z,99.90
2019-02-06T01:43:53.137Z,99.90
2019-02-06T01:46:20.521Z,99.90
2019-02-06T01:48:47.863Z,99.90
2019-02-06T01:51:15.017Z,99.90
2019-02-06T01:53:42.704Z,99.90
2019-02-06T01:56:09.957Z,99.90
2019-02-06T01:58:37.230Z,99.90
2019-02-06T02:01:04.969Z,99.90
2019-02-06T02:03:32.158Z,99.90
2019-02-06T02:06:02.291Z,99.90
2019-02-06T02:08:29.732Z,99.90
2019-02-06T02:10:57.462Z,99.90
2019-02-06T02:13:24.726Z,99.90
2019-02-06T02:15:52.074Z,99.90
2019-02-06T02:18:19.686Z,99.90
2019-02-06T02:20:46.958Z,99.90
2019-02-06T02:23:14.170Z,99.90
2019-02-06T02:25:41.437Z,99.90
2019-02-06T02:28:08.690Z,99.90
2019-02-06T02:30:42.209Z,99.90
2019-02-06T02:33:09.464Z,99.90
2019-02-06T02:35:36.588Z,99.90
2019-02-06T02:38:03.920Z,99.90
2019-02-06T02:40:31.174Z,99.90
2019-02-06T02:42:58.298Z,99.90
2019-02-06T02:45:25.865Z,99.90
2019-02-06T02:47:53.219Z,99.90
2019-02-06T02:50:20.476Z,99.90
2019-02-06T02:52:47.662Z,99.90
2019-02-06T02:55:15.010Z,99.90
2019-02-06T02:57:42.390Z,99.90
2019-02-06T03:00:13.614Z,99.90
2019-02-06T03:03:00.445Z,99.90
2019-02-06T03:05:30.245Z,99.90
2019-02-06T03:07:57.371Z,99.90
2019-02-06T03:10:24.718Z,99.90
2019-02-06T03:12:51.990Z,99.90
2019-02-06T03:15:19.650Z,99.90
2019-02-06T03:17:46.987Z,99.90
2019-02-06T03:20:14.605Z,99.90
2019-02-06T03:22:41.850Z,99.90
2019-02-06T03:25:09.543Z,99.90
2019-02-06T03:27:36.770Z,99.90
2019-02-06T03:30:06.041Z,99.90
2019-02-06T03:32:35.303Z,99.90
2019-02-06T03:35:03.202Z,99.90
2019-02-06T03:37:30.467Z,99.90
2019-02-06T03:39:57.680Z,99.90
2019-02-06T03:42:24.990Z,99.90
2019-02-06T03:44:52.428Z,99.90
2019-02-06T03:47:19.696Z,99.90
2019-02-06T03:49:46.830Z,99.90
2019-02-06T03:52:14.278Z,99.90
2019-02-06T03:54:41.407Z,99.90
2019-02-06T03:57:08.676Z,99.90
2019-02-06T03:59:35.908Z,99.90
2019-02-06T04:02:03.301Z,99.90
2019-02-06T04:04:30.595Z,99.90
2019-02-06T04:07:00.865Z,99.90
2019-02-06T04:09:26.879Z,99.90
2019-02-06T04:11:54.239Z,99.90
2019-02-06T04:14:21.497Z,99.90
2019-02-06T04:16:48.631Z,99.90
2019-02-06T04:19:15.994Z,99.90
2019-02-06T04:21:43.206Z,99.90
2019-02-06T04:24:10.480Z,99.90
2019-02-06T04:26:37.698Z,99.90
2019-02-06T04:29:05.122Z,99.90
2019-02-06T04:31:32.358Z,99.90
2019-02-06T04:33:59.692Z,99.90
2019-02-06T04:36:27.058Z,99.90
2019-02-06T04:38:54.278Z,99.90
2019-02-06T04:41:21.568Z,99.90
2019-02-06T04:43:48.692Z,99.90
2019-02-06T04:46:16.262Z,99.90
2019-02-06T04:48:43.521Z,99.90
2019-02-06T04:51:10.923Z,99.90
2019-02-06T04:53:38.237Z,99.90
2019-02-06T04:56:05.465Z,99.90
2019-02-06T04:58:32.828Z,99.90
2019-02-06T05:01:00.058Z,99.90
2019-02-06T05:03:27.205Z,99.90
2019-02-06T05:05:54.570Z,99.90
2019-02-06T05:08:21.814Z,99.90
2019-02-06T05:10:49.072Z,99.90
2019-02-06T05:13:16.294Z,99.90
2019-02-06T05:15:43.545Z,99.90
2019-02-06T05:18:10.795Z,99.90
2019-02-06T05:20:39.120Z,99.90
2019-02-06T05:23:07.139Z,99.90
2019-02-06T05:25:34.389Z,99.90
2019-02-06T05:28:01.528Z,99.90
2019-02-06T05:30:28.893Z,99.90
2019-02-06T05:32:56.138Z,99.90
2019-02-06T05:35:23.490Z,99.90
2019-02-06T05:37:50.893Z,99.90
2019-02-06T05:40:19.398Z,99.90
2019-02-06T05:42:46.900Z,99.90
2019-02-06T05:45:14.872Z,99.90
2019-02-06T05:47:42.018Z,99.90
2019-02-06T05:50:10.366Z,99.90
2019-02-06T05:52:37.657Z,99.90
2019-02-06T05:55:05.241Z,99.90
2019-02-06T05:57:32.592Z,99.90
2019-02-06T06:00:00.158Z,99.90
2019-02-06T06:02:27.394Z,99.90
2019-02-06T06:04:54.794Z,99.90
2019-02-06T06:07:22.114Z,99.90
2019-02-06T06:09:49.376Z,99.90
2019-02-06T06:12:16.726Z,99.90
2019-02-06T06:14:43.977Z,99.90
2019-02-06T06:17:11.103Z,99.90
2019-02-06T06:19:38.802Z,99.90
2019-02-06T06:22:06.105Z,99.90
2019-02-06T06:24:33.238Z,99.90
2019-02-06T06:27:00.502Z,99.90
2019-02-06T06:29:27.897Z,99.90
2019-02-06T06:31:55.051Z,99.90
2019-02-06T06:34:22.412Z,99.90
2019-02-06T06:36:49.789Z,99.90
2019-02-06T06:39:17.321Z,99.90
2019-02-06T06:41:44.551Z,99.90
2019-02-06T06:44:11.835Z,99.90
2019-02-06T06:46:38.974Z,99.90
2019-02-06T06:49:06.224Z,99.90
2019-02-06T06:51:33.508Z,99.90
2019-02-06T06:54:00.817Z,99.90
2019-02-06T06:56:28.039Z,99.90
2019-02-06T06:58:55.299Z,99.90
2019-02-06T07:01:22.627Z,99.90
2019-02-06T07:03:49.885Z,99.90
2019-02-06T07:06:17.342Z,99.90
2019-02-06T07:08:44.693Z,99.90
2019-02-06T07:11:11.870Z,99.90
2019-02-06T07:13:39.281Z,99.90
2019-02-06T07:16:06.920Z,99.90
2019-02-06T07:18:34.136Z,99.90
2019-02-06T07:21:01.841Z,99.90
2019-02-06T07:23:29.075Z,99.90
2019-02-06T07:25:56.371Z,99.90
2019-02-06T07:28:23.624Z,99.90
2019-02-06T07:30:50.791Z,99.90
2019-02-06T07:33:18.497Z,99.90
2019-02-06T07:35:45.680Z,99.90
2019-02-06T07:38:23.667Z,99.90
2019-02-06T07:40:42.007Z,99.90
2019-02-06T07:43:09.351Z,99.90
2019-02-06T07:45:36.694Z,99.90
2019-02-06T07:48:04.037Z,99.90
2019-02-06T07:50:32.628Z,99.90
2019-02-06T07:52:59.875Z,99.90
2019-02-06T07:55:27.047Z,99.90
2019-02-06T07:57:54.294Z,99.90
2019-02-06T08:00:21.535Z,99.90
2019-02-06T08:02:48.830Z,99.90
2019-02-06T08:05:17.161Z,99.90
2019-02-06T08:07:44.425Z,99.90
2019-02-06T08:10:18.213Z,99.90
2019-02-06T08:12:45.688Z,99.90
2019-02-06T08:15:13.675Z,99.90
2019-02-06T08:17:41.039Z,99.90
2019-02-06T08:20:10.402Z,99.90
2019-02-06T08:22:37.639Z,99.90
2019-02-06T08:25:05.809Z,99.90
2019-02-06T08:27:33.169Z,99.90
2019-02-06T08:30:00.439Z,99.90
2019-02-06T08:32:27.817Z,99.90
2019-02-06T08:34:55.071Z,99.90
2019-02-06T08:37:22.398Z,99.90
2019-02-06T08:39:49.686Z,99.90
2019-02-06T08:42:17.030Z,99.90
2019-02-06T08:44:44.598Z,99.90
2019-02-06T08:47:11.829Z,99.90
2019-02-06T08:49:39.198Z,99.90
2019-02-06T08:52:06.712Z,99.90
2019-02-06T08:54:33.997Z,99.90
2019-02-06T08:57:01.235Z,99.90
2019-02-06T08:59:28.488Z,99.90
2019-02-06T09:01:56.286Z,99.90
2019-02-06T09:04:23.511Z,99.90
2019-02-06T09:06:50.792Z,99.90
2019-02-06T09:09:19.016Z,99.90
2019-02-06T09:11:46.381Z,99.90
2019-02-06T09:14:13.539Z,99.90
2019-02-06T09:16:41.154Z,99.90
2019-02-06T09:19:08.281Z,99.90
2019-02-06T09:21:35.881Z,99.90
2019-02-06T09:24:03.258Z,99.90
2019-02-06T09:26:33.980Z,99.90
2019-02-06T09:28:59.793Z,99.90
2019-02-06T09:31:27.050Z,99.90
2019-02-06T09:33:54.315Z,99.90
2019-02-06T09:36:21.601Z,99.90
2019-02-06T09:38:49.250Z,99.90
2019-02-06T09:41:16.436Z,99.90
2019-02-06T09:43:43.712Z,99.90
2019-02-06T09:46:10.963Z,99.90
2019-02-06T09:48:38.173Z,99.90
2019-02-06T09:51:05.422Z,99.90
2019-02-06T09:53:32.902Z,99.90
2019-02-06T09:56:00.066Z,99.90
2019-02-06T09:58:27.510Z,99.90
2019-02-06T10:00:54.806Z,99.90
2019-02-06T10:03:22.064Z,99.90
2019-02-06T10:05:49.426Z,99.90
2019-02-06T10:08:16.682Z,99.90
2019-02-06T10:10:44.021Z,99.90
2019-02-06T10:13:11.183Z,99.90
2019-02-06T10:15:38.638Z,99.90
2019-02-06T10:18:06.738Z,99.90
2019-02-06T10:20:36.436Z,99.90
2019-02-06T10:23:04.221Z,99.90
2019-02-06T10:25:31.562Z,99.90
2019-02-06T10:27:58.741Z,99.90
2019-02-06T10:30:37.156Z,99.90
2019-02-06T10:33:04.499Z,99.90
2019-02-06T10:35:31.831Z,99.90
2019-02-06T10:37:59.222Z,99.90
2019-02-06T10:40:26.769Z,99.90
2019-02-06T10:42:54.046Z,99.90
2019-02-06T10:45:21.331Z,99.90
2019-02-06T10:47:48.801Z,99.90
2019-02-06T10:50:18.536Z,99.90
2019-02-06T10:52:48.192Z,99.90
2019-02-06T10:55:15.245Z,99.90
2019-02-06T10:57:42.606Z,99.90
2019-02-06T11:00:22.372Z,99.90
2019-02-06T11:02:49.626Z,99.90
2019-02-06T11:05:17.158Z,99.90
2019-02-06T11:07:46.220Z,99.90
2019-02-06T11:10:14.376Z,99.90
2019-02-06T11:12:41.774Z,99.90
2019-02-06T11:15:09.764Z,99.90
2019-02-06T11:17:37.124Z,99.90
2019-02-06T11:20:07.330Z,99.90
2019-02-06T11:22:34.462Z,99.90
2019-02-06T11:25:04.577Z,99.90
2019-02-06T11:27:30.733Z,99.90
2019-02-06T11:29:58.082Z,99.90
2019-02-06T11:32:25.334Z,99.90
2019-02-06T11:34:52.572Z,99.90
2019-02-06T11:37:19.839Z,99.90
2019-02-06T11:39:57.327Z,99.90
2019-02-06T11:42:16.219Z,99.90
2019-02-06T11:44:43.607Z,99.90
2019-02-06T11:47:10.866Z,99.90
2019-02-06T11:49:40.667Z,99.90
2019-02-06T11:52:07.995Z,99.90
2019-02-06T11:54:35.374Z,99.90
2019-02-06T11:57:02.620Z,99.90
2019-02-06T11:59:29.871Z,99.90
2019-02-06T12:01:57.134Z,99.90
2019-02-06T12:04:24.475Z,99.90
2019-02-06T12:06:51.805Z,99.90
2019-02-06T12:09:19.074Z,99.90
2019-02-06T12:11:46.359Z,96.30
2019-02-06T12:14:14.212Z,92.50
2019-02-06T12:16:41.389Z,88.00
2019-02-06T12:19:08.607Z,87.60
2019-02-06T12:21:35.865Z,91.70
2019-02-06T12:24:03.380Z,91.90
2019-02-06T12:26:30.758Z,96.00
2019-02-06T12:28:57.997Z,95.90
2019-02-06T12:31:25.185Z,98.50
2019-02-06T12:33:52.845Z,99.10
2019-02-06T12:36:20.116Z,99.40
2019-02-06T12:38:53.692Z,99.90
2019-02-06T12:41:16.641Z,99.90
2019-02-06T12:43:43.915Z,99.90
2019-02-06T12:46:11.189Z,99.90
2019-02-06T12:48:38.328Z,99.90
2019-02-06T12:51:05.710Z,99.90
2019-02-06T12:53:33.094Z,99.90
2019-02-06T12:56:00.457Z,99.90
2019-02-06T12:58:27.707Z,99.90
2019-02-06T13:00:54.989Z,99.90
2019-02-06T13:03:22.467Z,99.90
2019-02-06T13:05:49.786Z,99.90
2019-02-06T13:08:17.473Z,99.90
2019-02-06T13:10:44.935Z,99.90
2019-02-06T13:13:12.701Z,99.90
2019-02-06T13:15:39.837Z,97.40
2019-02-06T13:18:07.138Z,96.90
2019-02-06T13:20:34.409Z,96.40
2019-02-06T13:23:01.859Z,98.30
2019-02-06T13:25:29.237Z,97.90
2019-02-06T13:27:56.601Z,98.00
2019-02-06T13:30:28.958Z,99.60
2019-02-06T13:32:56.211Z,97.80
2019-02-06T13:35:23.368Z,97.90
2019-02-06T13:37:50.710Z,99.80
2019-02-06T13:40:19.172Z,99.90
2019-02-06T13:42:46.385Z,99.90
2019-02-06T13:45:16.645Z,99.90
2019-02-06T13:47:44.729Z,99.90
2019-02-06T13:50:21.558Z,99.90
2019-02-06T13:52:41.676Z,99.90
2019-02-06T13:55:09.968Z,99.90
2019-02-06T13:57:37.296Z,99.90
2019-02-06T14:00:10.624Z,99.90
2019-02-06T14:02:38.184Z,99.90
2019-02-06T14:05:05.416Z,99.90
2019-02-06T14:07:32.591Z,99.90
2019-02-06T14:09:59.826Z,99.90
2019-02-06T14:12:27.101Z,99.90
2019-02-06T14:14:54.474Z,99.90
2019-02-06T14:17:21.661Z,99.90
2019-02-06T14:19:48.968Z,99.90
2019-02-06T14:22:16.485Z,99.90
2019-02-06T14:24:50.790Z,99.90
2019-02-06T14:27:47.877Z,99.90
2019-02-06T14:30:26.105Z,99.90
2019-02-06T14:33:28.640Z,99.90
2019-02-06T14:36:14.201Z,99.90
2019-02-06T14:39:20.087Z,99.90
2019-02-06T14:42:22.944Z,99.90
2019-02-06T14:45:19.446Z,99.90
2019-02-06T14:48:23.769Z,99.90
2019-02-06T14:51:29.479Z,99.90
2019-02-06T14:54:18.132Z,99.90
2019-02-06T14:57:18.958Z,99.90
2019-02-06T15:00:15.073Z,99.90
2019-02-06T15:03:09.310Z,99.90
2019-02-06T15:06:09.261Z,99.90
2019-02-06T15:09:22.289Z,99.90
2019-02-06T15:12:18.714Z,99.90
2019-02-06T15:15:32.492Z,99.90
2019-02-06T15:18:31.022Z,99.90
2019-02-06T15:21:24.100Z,99.90
2019-02-06T15:24:46.058Z,99.90
2019-02-06T15:27:58.315Z,99.90
2019-02-06T15:31:16.188Z,99.90
2019-02-06T15:34:24.054Z,99.90
2019-02-06T15:37:08.563Z,99.90
2019-02-06T15:40:06.069Z,99.90
2019-02-06T15:43:01.497Z,99.90
2019-02-06T15:46:06.588Z,99.90
2019-02-06T15:49:13.263Z,99.90
2019-02-06T15:52:16.160Z,99.90
2019-02-06T15:55:20.201Z,99.90
2019-02-06T15:58:19.431Z,99.90
2019-02-06T16:01:01.000Z,99.90
2019-02-06T16:04:38.518Z,99.90
2019-02-06T16:07:48.432Z,99.90
2019-02-06T16:11:02.064Z,99.90
2019-02-06T16:14:19.996Z,99.90
2019-02-06T16:17:31.163Z,99.90
2019-02-06T16:20:22.648Z,99.90
2019-02-06T16:23:02.037Z,99.90
2019-02-06T16:26:15.200Z,99.90
2019-02-06T16:29:08.642Z,99.90
2019-02-06T16:32:08.953Z,99.90
2019-02-06T16:35:15.255Z,99.90
2019-02-06T16:38:30.589Z,99.90
2019-02-06T16:41:39.677Z,99.90
2019-02-06T16:44:40.579Z,99.90
2019-02-06T16:47:58.725Z,99.90
2019-02-06T16:50:43.878Z,99.90
2019-02-06T16:53:51.908Z,99.90
2019-02-06T16:56:41.597Z,99.90
2019-02-06T16:59:37.558Z,99.90
2019-02-06T17:03:21.019Z,99.90
2019-02-06T17:06:24.166Z,99.90
2019-02-06T17:09:23.129Z,99.90
2019-02-06T17:12:04.746Z,99.90
2019-02-06T17:15:04.061Z,99.90
2019-02-06T17:17:57.513Z,99.90
2019-02-06T17:20:52.509Z,99.90
2019-02-06T17:23:51.032Z,99.90
2019-02-06T17:27:08.774Z,99.90
2019-02-06T17:30:12.117Z,99.90
2019-02-06T17:33:26.408Z,99.90
2019-02-06T17:36:17.759Z,99.90
2019-02-06T17:39:35.630Z,99.90
2019-02-06T17:42:49.694Z,99.90
2019-02-06T17:45:51.056Z,99.90
2019-02-06T17:48:54.518Z,99.90
2019-02-06T17:52:08.430Z,99.90
2019-02-06T19:12:59.937Z,47.80
2019-02-06T19:15:27.731Z,44.20
2019-02-06T19:17:54.974Z,57.80
2019-02-06T19:20:22.288Z,92.20
2019-02-06T19:22:49.654Z,99.90
2019-02-06T19:25:17.107Z,99.90
2019-02-06T19:27:44.492Z,99.90
2019-02-06T19:30:27.191Z,99.90
2019-02-06T19:32:54.929Z,99.90
2019-02-06T19:35:22.149Z,99.90
2019-02-06T19:37:49.399Z,99.90
2019-02-06T19:40:16.836Z,99.90
2019-02-06T19:42:44.197Z,99.90
2019-02-06T19:45:11.542Z,99.90
2019-02-06T19:47:38.923Z,99.90
2019-02-06T19:50:11.546Z,99.90
2019-02-06T19:52:39.086Z,99.90
2019-02-06T19:55:08.128Z,99.90
2019-02-06T19:57:35.397Z,99.90
2019-02-06T20:00:05.460Z,99.90
2019-02-06T20:02:32.829Z,99.90
2019-02-06T20:05:00.228Z,99.90
2019-02-06T20:07:27.576Z,99.90
2019-02-06T20:09:54.914Z,99.90
2019-02-06T20:12:22.530Z,99.90
2019-02-06T20:14:49.904Z,99.90
2019-02-06T20:17:17.160Z,99.90
2019-02-06T20:19:44.516Z,99.90
2019-02-06T20:22:11.721Z,99.90
2019-02-06T20:24:39.154Z,99.90
2019-02-06T20:27:06.495Z,99.90
2019-02-06T20:29:33.885Z,99.90
2019-02-06T20:32:01.229Z,99.90
2019-02-06T20:34:28.840Z,99.90
2019-02-06T20:36:56.228Z,99.90
2019-02-06T20:39:23.687Z,99.90
2019-02-06T20:41:51.087Z,99.90
2019-02-06T20:44:18.432Z,99.90
2019-02-06T20:46:45.815Z,99.90
2019-02-06T20:49:13.071Z,99.90
2019-02-06T20:51:40.344Z,99.90
2019-02-06T20:54:08.014Z,99.90
2019-02-06T20:56:35.266Z,99.90
2019-02-06T20:59:02.556Z,99.90
2019-02-06T21:01:29.888Z,99.90
2019-02-06T21:03:57.239Z,99.90
2019-02-06T21:06:24.597Z,99.90
2019-02-06T21:08:51.931Z,99.90
2019-02-06T21:11:19.299Z,99.90
2019-02-06T21:13:46.845Z,99.90
2019-02-06T21:16:14.211Z,99.90
2019-02-06T21:18:41.423Z,99.90
2019-02-06T21:21:08.694Z,99.90
2019-02-06T21:23:35.957Z,99.90
2019-02-06T21:26:03.224Z,99.90
2019-02-06T21:28:30.482Z,99.90
2019-02-06T21:30:57.836Z,99.90
2019-02-06T21:33:25.106Z,99.90
2019-02-06T21:35:52.253Z,99.90
2019-02-06T21:38:19.500Z,99.90
2019-02-06T21:40:46.886Z,99.90
2019-02-06T21:43:14.244Z,99.90
2019-02-06T21:45:41.420Z,99.90
2019-02-06T21:48:08.887Z,99.90
2019-02-06T21:50:36.547Z,99.90
2019-02-06T21:53:03.900Z,99.90
2019-02-06T21:55:31.264Z,99.90
2019-02-06T21:57:58.488Z,99.90
2019-02-06T22:00:27.800Z,99.90
2019-02-06T22:02:55.162Z,99.90
2019-02-06T22:05:22.527Z,99.90
2019-02-06T22:07:50.106Z,99.90
2019-02-06T22:10:17.564Z,99.90
2019-02-06T22:12:45.138Z,99.90
2019-02-06T22:15:17.179Z,99.90
2019-02-06T22:17:44.479Z,99.90
2019-02-06T22:20:12.149Z,99.90
2019-02-06T22:22:39.475Z,99.90
2019-02-06T22:25:06.885Z,99.90
2019-02-06T22:27:34.225Z,99.90
2019-02-06T22:30:01.627Z,99.90
2019-02-06T22:32:28.963Z,99.90
2019-02-06T22:34:56.141Z,99.90
2019-02-06T22:37:23.519Z,99.90
2019-02-06T22:39:50.916Z,99.90
2019-02-06T22:42:18.355Z,99.90
2019-02-06T22:44:45.616Z,99.90
2019-02-06T22:47:12.888Z,99.90
2019-02-06T22:49:40.116Z,99.90
2019-02-06T22:52:07.468Z,99.90
2019-02-06T22:54:34.742Z,99.90
2019-02-06T22:57:02.125Z,99.90
2019-02-06T22:59:29.700Z,99.90
2019-02-06T23:01:57.666Z,99.90
2019-02-06T23:04:24.919Z,99.90
2019-02-06T23:06:52.272Z,99.90
2019-02-06T23:09:19.520Z,99.90
2019-02-06T23:11:46.895Z,99.90
2019-02-06T23:14:17.773Z,99.90
2019-02-06T23:16:43.407Z,99.90
2019-02-06T23:19:10.691Z,99.90
2019-02-06T23:21:37.937Z,99.90
2019-02-06T23:24:05.199Z,99.90
2019-02-06T23:26:32.433Z,99.90
2019-02-06T23:28:59.689Z,99.90
2019-02-06T23:31:26.939Z,99.90
2019-02-06T23:33:54.501Z,99.90
2019-02-06T23:36:21.738Z,99.90
2019-02-06T23:38:48.918Z,99.90
2019-02-06T23:41:16.177Z,99.90
2019-02-06T23:43:43.550Z,99.90
2019-02-06T23:46:10.819Z,99.90
2019-02-06T23:48:38.179Z,99.90
2019-02-06T23:51:05.762Z,99.90
2019-02-06T23:53:33.026Z,99.90
2019-02-06T23:56:00.270Z,99.90
2019-02-06T23:58:27.438Z,99.90
